createdAt,value
2022-11-21T00:01:52.062Z,28.60
2022-11-21T00:05:58.752Z,30.53
2022-11-21T00:10:06.047Z,28.93
2022-11-21T00:14:12.733Z,30.50
2022-11-21T00:18:19.386Z,33.67
2022-11-21T00:22:26.036Z,29.40
2022-11-21T00:26:32.749Z,29.97
2022-11-21T00:30:39.420Z,31.63
2022-11-21T00:34:46.192Z,39.40
2022-11-21T00:38:52.872Z,25.93
2022-11-21T00:42:59.511Z,25.40
2022-11-21T00:47:06.245Z,34.03
2022-11-21T00:51:12.886Z,26.93
2022-11-21T00:55:19.514Z,28.57
2022-11-21T00:59:26.192Z,34.97
2022-11-21T01:03:34.950Z,35.23
2022-11-21T01:07:41.756Z,31.17
2022-11-21T01:11:48.456Z,32.73
2022-11-21T01:15:55.121Z,26.63
2022-11-21T01:20:01.873Z,31.33
2022-11-21T01:24:11.548Z,27.77
2022-11-21T01:28:18.214Z,26.73
2022-11-21T01:32:24.888Z,26.13
2022-11-21T01:36:33.568Z,28.47
2022-11-21T01:40:40.667Z,26.17
2022-11-21T01:44:50.527Z,28.70
2022-11-21T01:49:00.286Z,29.23
2022-11-21T01:53:08.029Z,22.63
2022-11-21T01:57:22.151Z,30.77
2022-11-21T02:01:29.920Z,22.10
2022-11-21T02:05:39.013Z,29.03
2022-11-21T02:09:49.024Z,28.30
2022-11-21T02:13:56.607Z,31.17
2022-11-21T02:18:03.418Z,29.13
2022-11-21T02:22:35.792Z,25.17
2022-11-21T02:26:42.753Z,26.48
2022-11-21T02:30:49.877Z,24.17
2022-11-21T02:34:56.548Z,30.83
2022-11-21T02:39:05.397Z,30.83
2022-11-21T02:43:16.929Z,25.90
2022-11-21T02:47:24.520Z,28.83
2022-11-21T02:51:31.200Z,28.77
2022-11-21T02:55:38.227Z,26.33
2022-11-21T02:59:44.914Z,27.40
2022-11-21T03:03:51.562Z,28.70
2022-11-21T03:07:58.518Z,28.20
2022-11-21T03:12:10.029Z,26.07
2022-11-21T03:16:16.690Z,26.83
2022-11-21T03:20:23.459Z,26.13
2022-11-21T03:24:30.354Z,29.07
2022-11-21T03:28:37.056Z,26.57
2022-11-21T03:32:43.793Z,29.23
2022-11-21T03:36:51.260Z,27.30
2022-11-21T03:40:57.949Z,28.70
2022-11-21T03:45:05.357Z,25.40
2022-11-21T03:49:13.800Z,29.87
2022-11-21T03:53:20.495Z,27.87
2022-11-21T03:57:27.154Z,23.93
2022-11-21T04:01:36.816Z,24.83
2022-11-21T04:05:47.000Z,29.03
2022-11-21T04:09:53.668Z,29.87
2022-11-21T04:14:00.365Z,31.47
2022-11-21T04:18:07.135Z,27.73
2022-11-21T04:22:13.893Z,28.23
2022-11-21T04:26:20.562Z,29.53
2022-11-21T04:30:27.933Z,33.50
2022-11-21T04:34:34.590Z,39.00
2022-11-21T04:38:41.221Z,46.33
2022-11-21T04:42:48.678Z,39.53
2022-11-21T04:46:55.335Z,39.63
2022-11-21T04:51:01.978Z,39.93
2022-11-21T04:55:09.295Z,42.10
2022-11-21T04:59:15.979Z,46.47
2022-11-21T05:03:22.670Z,56.73
2022-11-21T05:07:29.392Z,57.57
2022-11-21T05:11:54.745Z,84.10
2022-11-21T05:16:01.406Z,45.37
2022-11-21T05:20:09.346Z,49.20
2022-11-21T05:24:16.090Z,61.60
2022-11-21T05:28:22.769Z,57.80
2022-11-21T05:32:29.495Z,43.07
2022-11-21T05:36:36.134Z,47.33
2022-11-21T05:40:42.794Z,53.40
2022-11-21T05:44:49.491Z,43.30
2022-11-21T05:48:56.230Z,43.40
2022-11-21T05:53:04.836Z,41.57
2022-11-21T05:57:11.731Z,48.17
2022-11-21T06:01:38.386Z,41.87
2022-11-21T06:05:45.023Z,42.03
2022-11-21T06:09:51.718Z,44.33
2022-11-21T06:13:58.471Z,38.10
2022-11-21T06:18:05.116Z,44.57
2022-11-21T06:22:11.757Z,40.43
2022-11-21T06:26:20.916Z,38.63
2022-11-21T06:30:27.580Z,41.93
2022-11-21T06:34:34.244Z,37.53
2022-11-21T06:38:41.236Z,42.43
2022-11-21T06:42:47.905Z,49.30
2022-11-21T06:46:55.062Z,44.60
2022-11-21T06:51:11.957Z,50.20
2022-11-21T06:55:18.620Z,53.03
2022-11-21T06:59:25.304Z,56.43
2022-11-21T07:03:32.049Z,54.87
2022-11-21T07:07:38.757Z,54.10
2022-11-21T07:11:45.573Z,57.60
2022-11-21T07:15:53.916Z,58.57
2022-11-21T07:20:00.568Z,67.67
2022-11-21T07:24:07.413Z,83.67
2022-11-21T07:28:14.080Z,56.13
2022-11-21T07:32:20.828Z,65.97
2022-11-21T07:36:27.499Z,74.73
2022-11-21T07:40:34.787Z,94.77
2022-11-21T07:44:41.468Z,108.30
2022-11-21T07:48:48.151Z,108.30
2022-11-21T07:53:03.077Z,72.33
2022-11-21T07:57:09.761Z,89.63
2022-11-21T08:01:16.430Z,55.23
2022-11-21T08:05:23.608Z,117.70
2022-11-21T08:09:30.549Z,70.83
2022-11-21T08:13:37.339Z,92.87
2022-11-21T08:17:44.388Z,62.60
2022-11-21T08:21:51.084Z,54.43
2022-11-21T08:25:57.989Z,45.43
2022-11-21T08:30:07.193Z,38.70
2022-11-21T08:34:14.768Z,44.53
2022-11-21T08:38:21.531Z,71.33
2022-11-21T08:42:28.243Z,63.33
2022-11-21T08:46:37.297Z,53.60
2022-11-21T08:50:43.983Z,39.97
2022-11-21T08:54:50.686Z,35.93
2022-11-21T08:58:57.486Z,42.47
2022-11-21T09:03:05.518Z,38.67
2022-11-21T09:07:12.258Z,51.33
2022-11-21T09:11:19.078Z,48.40
2022-11-21T09:15:44.500Z,43.87
2022-11-21T09:19:51.151Z,31.77
2022-11-21T09:23:57.820Z,40.20
2022-11-21T09:28:06.358Z,31.03
2022-11-21T09:32:13.014Z,32.57
2022-11-21T09:36:19.652Z,34.10
2022-11-21T09:40:26.721Z,31.03
2022-11-21T09:44:49.062Z,30.90
2022-11-21T09:49:07.371Z,31.60
2022-11-21T09:53:25.341Z,29.93
2022-11-21T09:57:35.737Z,27.20
2022-11-21T10:01:42.400Z,24.40
2022-11-21T10:05:54.605Z,28.30
2022-11-21T10:10:22.223Z,29.63
2022-11-21T10:14:29.149Z,27.90
2022-11-21T10:19:06.893Z,27.87
2022-11-21T10:23:44.928Z,27.13
2022-11-21T10:28:01.927Z,27.80
2022-11-21T10:32:45.616Z,26.65
2022-11-21T10:37:06.413Z,25.83
2022-11-21T10:41:18.601Z,28.27
2022-11-21T10:45:25.519Z,29.52
2022-11-21T10:49:34.329Z,34.00
2022-11-21T10:54:04.606Z,32.80
2022-11-21T10:58:18.843Z,36.85
2022-11-21T11:02:26.587Z,36.63
2022-11-21T11:06:33.548Z,37.30
2022-11-21T11:11:05.815Z,43.05
2022-11-21T11:15:24.571Z,42.28
2022-11-21T11:19:38.556Z,45.67
2022-11-21T11:23:48.410Z,42.05
2022-11-21T11:27:56.170Z,43.17
2022-11-21T11:32:21.548Z,41.33
2022-11-21T11:36:39.533Z,45.33
2022-11-21T11:40:46.321Z,43.75
2022-11-21T11:45:30.915Z,50.67
2022-11-21T11:50:03.118Z,49.58
2022-11-21T11:54:18.361Z,62.05
2022-11-21T11:58:40.691Z,66.88
2022-11-21T12:02:51.668Z,58.33
2022-11-21T12:12:16.025Z,56.50
2022-11-21T12:16:26.500Z,51.75
2022-11-21T12:20:57.454Z,59.05
2022-11-21T12:25:07.572Z,54.72
2022-11-21T12:29:49.985Z,54.10
2022-11-21T12:34:30.780Z,53.75
2022-11-21T12:39:32.850Z,50.58
2022-11-21T12:43:57.357Z,45.78
2022-11-21T12:48:29.099Z,51.03
2022-11-21T12:53:06.731Z,49.83
2022-11-21T12:57:14.205Z,51.70
2022-11-21T13:01:39.610Z,53.40
2022-11-21T13:05:50.192Z,57.70
2022-11-21T13:09:58.792Z,52.40
2022-11-21T13:14:28.485Z,45.42
2022-11-21T13:18:45.646Z,44.10
2022-11-21T13:22:57.371Z,48.50
2022-11-21T13:27:04.395Z,56.43
2022-11-21T13:31:32.430Z,51.50
2022-11-21T13:35:39.063Z,57.00
2022-11-21T13:39:45.705Z,55.83
2022-11-21T13:44:30.955Z,54.40
2022-11-21T13:49:04.708Z,65.05
2022-11-21T13:53:32.835Z,58.65
2022-11-21T13:57:45.277Z,52.15
2022-11-21T14:02:15.672Z,52.00
2022-11-21T14:06:33.824Z,54.40
2022-11-21T14:10:42.811Z,59.00
2022-11-21T14:15:01.659Z,51.40
2022-11-21T14:19:22.166Z,62.53
2022-11-21T14:23:32.520Z,49.20
2022-11-21T14:27:45.390Z,62.85
2022-11-21T14:31:52.496Z,57.03
2022-11-21T14:36:01.195Z,50.08
2022-11-21T14:40:19.608Z,56.22
2022-11-21T14:44:27.174Z,59.20
2022-11-21T14:48:35.408Z,58.35
2022-11-21T14:52:42.110Z,52.42
2022-11-21T14:57:01.978Z,62.95
2022-11-21T15:01:30.033Z,55.30
2022-11-21T15:14:43.919Z,58.28
2022-11-21T15:18:50.743Z,52.90
2022-11-21T15:23:00.083Z,55.15
2022-11-21T15:27:28.608Z,56.55
2022-11-21T15:31:35.263Z,47.80
2022-11-21T15:35:47.359Z,56.50
2022-11-21T15:39:54.447Z,60.35
2022-11-21T15:44:01.055Z,57.55
2022-11-21T15:48:07.902Z,54.97
2022-11-21T15:52:14.543Z,68.50
2022-11-21T15:56:23.080Z,65.32
2022-11-21T16:00:29.935Z,57.45
2022-11-21T16:04:36.590Z,61.67
2022-11-21T16:08:43.635Z,48.13
2022-11-21T16:12:50.319Z,59.65
2022-11-21T16:16:57.001Z,54.47
2022-11-21T16:21:11.618Z,64.47
2022-11-21T16:25:18.426Z,66.40
2022-11-21T16:29:25.091Z,61.17
2022-11-21T16:33:33.090Z,72.35
2022-11-21T16:37:39.744Z,56.28
2022-11-21T16:41:47.834Z,61.78
2022-11-21T16:45:55.116Z,58.85
2022-11-21T16:50:01.993Z,59.00
2022-11-21T16:54:09.573Z,57.30
2022-11-21T16:58:16.449Z,53.40
2022-11-21T17:02:23.116Z,52.17
2022-11-21T17:06:31.339Z,52.03
2022-11-21T17:10:38.049Z,56.75
2022-11-21T17:14:46.678Z,61.33
2022-11-21T17:18:58.010Z,51.53
2022-11-21T17:23:04.698Z,56.60
2022-11-21T17:27:11.420Z,55.42
2022-11-21T17:31:19.094Z,52.63
2022-11-21T17:35:25.757Z,50.28
2022-11-21T17:39:32.700Z,56.42
2022-11-21T17:43:40.502Z,50.78
2022-11-21T17:47:47.181Z,59.13
2022-11-21T17:51:56.645Z,51.25
2022-11-21T17:56:05.998Z,49.90
2022-11-21T18:00:13.324Z,48.17
2022-11-21T18:04:20.020Z,53.63
2022-11-21T18:08:29.207Z,40.15
2022-11-21T18:12:35.860Z,43.53
2022-11-21T18:16:46.163Z,38.20
2022-11-21T18:21:02.309Z,49.13
2022-11-21T18:25:09.183Z,35.63
2022-11-21T18:33:43.325Z,46.35
2022-11-21T18:37:50.056Z,33.67
2022-11-21T18:41:56.738Z,34.40
2022-11-21T18:46:08.935Z,37.30
2022-11-21T18:50:16.101Z,31.95
2022-11-21T18:54:22.777Z,32.67
2022-11-21T18:58:29.571Z,32.90
2022-11-21T19:02:36.278Z,33.60
2022-11-21T19:06:42.937Z,36.63
2022-11-21T19:10:49.671Z,31.67
2022-11-21T19:14:56.349Z,32.55
2022-11-21T19:23:35.779Z,37.83
2022-11-21T19:27:42.424Z,32.05
2022-11-21T19:31:49.097Z,29.40
2022-11-21T19:36:04.490Z,26.98
2022-11-21T19:40:12.346Z,26.98
2022-11-21T19:44:19.073Z,30.30
2022-11-21T19:48:26.025Z,33.08
2022-11-21T19:52:32.999Z,27.33
2022-11-21T19:56:39.791Z,22.50
2022-11-21T20:00:46.634Z,27.25
2022-11-21T20:04:54.222Z,25.95
2022-11-21T20:09:09.675Z,25.70
2022-11-21T20:13:16.371Z,23.75
2022-11-21T20:17:23.030Z,24.63
2022-11-21T20:21:30.187Z,19.88
2022-11-21T20:25:36.867Z,23.98
2022-11-21T20:29:43.496Z,20.13
2022-11-21T20:33:52.393Z,26.10
2022-11-21T20:37:59.094Z,22.20
2022-11-21T20:42:06.752Z,22.02
2022-11-21T20:46:18.840Z,25.65
2022-11-21T20:51:14.845Z,20.92
2022-11-21T20:54:54.617Z,19.75
2022-11-21T20:59:01.400Z,19.25
2022-11-21T21:03:12.795Z,16.83
2022-11-21T21:07:19.494Z,17.50
2022-11-21T21:15:53.907Z,18.17
2022-11-21T21:20:00.554Z,18.23
2022-11-21T21:24:09.857Z,18.90
2022-11-21T21:28:16.517Z,12.82
2022-11-21T21:32:23.310Z,12.48
2022-11-21T21:36:30.436Z,17.88
2022-11-21T21:40:37.093Z,13.52
2022-11-21T21:44:43.748Z,9.75
2022-11-21T21:48:55.720Z,13.57
2022-11-21T21:53:03.077Z,13.40
2022-11-21T21:57:10.238Z,13.38
2022-11-21T22:01:23.368Z,14.07
2022-11-21T22:05:31.488Z,11.02
2022-11-21T22:09:38.147Z,11.30
2022-11-21T22:13:47.343Z,10.48
2022-11-21T22:17:53.989Z,9.95
2022-11-21T22:22:00.643Z,12.77
2022-11-21T22:26:09.601Z,14.45
2022-11-21T22:30:16.555Z,12.23
2022-11-21T22:34:23.544Z,9.60
2022-11-21T22:38:30.500Z,13.27
2022-11-21T22:42:37.141Z,10.88
2022-11-21T22:46:43.880Z,9.27
2022-11-21T22:50:50.531Z,15.80
2022-11-21T22:54:57.292Z,14.05
2022-11-21T22:59:04.059Z,9.80
2022-11-21T23:03:10.691Z,12.82
2022-11-21T23:07:17.397Z,21.20
2022-11-21T23:11:27.567Z,11.38
2022-11-21T23:15:34.347Z,9.13
2022-11-21T23:19:41.034Z,10.00
2022-11-21T23:23:47.771Z,7.93
2022-11-21T23:27:54.438Z,10.55
2022-11-21T23:32:01.980Z,13.15
2022-11-21T23:36:09.117Z,9.02
2022-11-21T23:40:15.979Z,12.25
2022-11-21T23:44:22.682Z,12.80
2022-11-21T23:48:29.446Z,8.00
2022-11-21T23:52:36.118Z,10.18
2022-11-21T23:56:42.785Z,8.02
